Time,TemperatureF,DewpointF,PressureIn,WindDirection,WindDirectionDegrees,WindSpeedMPH,WindSpeedGustMPH,Humidity,HourlyPrecipIn,Conditions,Clouds,dailyrainin,SoftwareType,DateUTC
2013-02-21 00:01:00,28.3,20.7,30.30,ENE,74,3.5,3.5,73,0.00,RA,FEW,0.00,WeatherDisplay:10.37,2013-02-21 06:01:00,
2013-02-21 00:06:00,28.2,20.3,30.30,ENE,57,5.8,5.8,72,0.00,RA,FEW,0.00,WeatherDisplay:10.37,2013-02-21 06:06:00,
2013-02-21 00:11:00,28.1,20.2,30.29,ENE,62,8.1,8.1,72,0.00,OVC,FEW,0.00,WeatherDisplay:10.37,2013-02-21 06:11:00,
2013-02-21 00:16:00,28.0,20.1,30.29,ENE,74,8.1,8.1,72,0.00,OVC,FEW,0.00,WeatherDisplay:10.37,2013-02-21 06:16:00,
2013-02-21 00:21:00,27.9,20.7,30.30,East,79,3.5,3.5,74,0.00,OVC,FEW,0.00,WeatherDisplay:10.37,2013-02-21 06:21:00,
2013-02-21 00:26:00,27.8,20.6,30.30,ENE,66,5.8,5.8,74,0.00,OVC,FEW,0.00,WeatherDisplay:10.37,2013-02-21 06:26:00,
2013-02-21 00:31:00,27.7,20.8,30.30,ENE,68,1.1,1.9,75,0.00,OVC,FEW,0.00,WeatherDisplay:10.37,2013-02-21 06:31:00,
2013-02-21 00:36:00,27.7,20.8,30.29,ENE,71,8.1,8.1,75,0.00,OVC,FEW,0.00,WeatherDisplay:10.37,2013-02-21 06:36:00,
2013-02-21 00:41:00,27.7,20.8,30.28,ENE,63,3.5,3.5,75,0.00,OVC,FEW,0.00,WeatherDisplay:10.37,2013-02-21 06:41:00,
2013-02-21 00:46:00,27.6,20.7,30.28,ENE,63,4.6,4.6,75,0.00,OVC,FEW,0.00,WeatherDisplay:10.37,2013-02-21 06:46:00,
2013-02-21 00:51:00,27.6,20.7,30.29,ENE,67,5.8,5.8,75,0.00,OVC,FEW,0.00,WeatherDisplay:10.37,2013-02-21 06:51:00,
2013-02-21 00:56:00,27.5,20.9,30.30,NE,51,1.1,1.1,76,0.00,OVC,FEW,0.00,WeatherDisplay:10.37,2013-02-21 06:56:00,
2013-02-21 01:01:00,27.4,20.5,30.30,NE,45,3.5,3.5,75,0.00,CLR,FEW,0.00,WeatherDisplay:10.37,2013-02-21 07:01:00,
2013-02-21 01:06:00,27.5,20.3,30.30,NNE,13,6.9,6.9,74,0.00,CLR,FEW,0.00,WeatherDisplay:10.37,2013-02-21 07:06:00,
2013-02-21 01:11:00,27.6,20.7,30.30,ENE,69,6.9,6.9,75,0.00,CLR,FEW,0.00,WeatherDisplay:10.37,2013-02-21 07:11:00,
2013-02-21 01:16:00,27.6,20.7,30.29,East,86,5.8,5.8,75,0.00,CLR,FEW,0.00,WeatherDisplay:10.37,2013-02-21 07:16:00,
2013-02-21 01:21:00,27.7,20.8,30.29,East,87,4.6,4.6,75,0.00,CLR,FEW,0.00,WeatherDisplay:10.37,2013-02-21 07:21:00,
2013-02-21 01:26:00,27.7,20.8,30.30,NE,44,3.5,3.5,75,0.00,CLR,FEW,0.00,WeatherDisplay:10.37,2013-02-21 07:26:00,
2013-02-21 01:31:00,27.7,20.8,30.30,NE,51,4.6,4.6,75,0.00,CLR,FEW,0.00,WeatherDisplay:10.37,2013-02-21 07:31:00,
2013-02-21 01:36:00,27.8,20.9,30.29,NE,49,6.9,6.9,75,0.00,CLR,FEW,0.00,WeatherDisplay:10.37,2013-02-21 07:36:00,
2013-02-21 01:41:00,27.7,20.5,30.30,ENE,74,5.8,5.8,74,0.00,CLR,FEW,0.00,WeatherDisplay:10.37,2013-02-21 07:41:00,
2013-02-21 01:46:00,27.7,20.8,30.30,ESE,119,0.0,0.0,75,0.00,CLR,FEW,0.00,WeatherDisplay:10.37,2013-02-21 07:46:00,
2013-02-21 01:51:00,27.6,20.4,30.30,East,90,1.1,1.2,74,0.00,CLR,FEW,0.00,WeatherDisplay:10.37,2013-02-21 07:51:00,
2013-02-21 01:56:00,27.5,20.6,30.29,ENE,57,2.3,2.3,75,0.00,CLR,FEW,0.00,WeatherDisplay:10.37,2013-02-21 07:56:00,
2013-02-21 02:01:00,27.3,20.4,30.29,NE,42,4.6,4.6,75,0.00,OVC,FEW,0.00,WeatherDisplay:10.37,2013-02-21 08:01:00,
2013-02-21 02:06:00,27.2,20.3,30.29,ENE,60,5.8,5.8,75,0.00,OVC,FEW,0.00,WeatherDisplay:10.37,2013-02-21 08:06:00,
2013-02-21 02:11:00,27.1,20.2,30.28,ENE,60,4.6,4.6,75,0.00,OVC,FEW,0.00,WeatherDisplay:10.37,2013-02-21 08:11:00,
2013-02-21 02:16:00,27.1,20.5,30.28,East,88,3.5,3.5,76,0.00,OVC,FEW,0.00,WeatherDisplay:10.37,2013-02-21 08:16:00,
2013-02-21 02:21:00,27.1,20.2,30.28,NE,56,8.1,8.1,75,0.00,OVC,FEW,0.00,WeatherDisplay:10.37,2013-02-21 08:21:00,
2013-02-21 02:26:00,27.1,20.5,30.28,ENE,57,5.8,5.8,76,0.00,OVC,FEW,0.00,WeatherDisplay:10.37,2013-02-21 08:26:00,
2013-02-21 02:31:00,27.0,20.4,30.29,ESE,111,1.1,1.1,76,0.00,OVC,FEW,0.00,WeatherDisplay:10.37,2013-02-21 08:31:00,
2013-02-21 02:36:00,27.0,20.4,30.29,ESE,102,2.3,2.3,76,0.00,OVC,FEW,0.00,WeatherDisplay:10.37,2013-02-21 08:36:00,
2013-02-21 02:41:00,27.0,20.4,30.28,NNE,32,3.5,3.5,76,0.00,OVC,FEW,0.00,WeatherDisplay:10.37,2013-02-21 08:41:00,
2013-02-21 02:46:00,27.0,20.7,30.28,NE,55,2.3,2.3,77,0.00,OVC,FEW,0.00,WeatherDisplay:10.37,2013-02-21 08:46:00,
2013-02-21 02:51:00,27.1,20.5,30.28,East,80,5.8,5.8,76,0.00,OVC,FEW,0.00,WeatherDisplay:10.37,2013-02-21 08:51:00,
2013-02-21 02:56:00,27.1,20.5,30.27,ENE,61,6.9,6.9,76,0.00,OVC,FEW,0.00,WeatherDisplay:10.37,2013-02-21 08:56:00,
2013-02-21 03:02:00,27.2,20.6,30.28,NE,39,6.9,6.9,76,0.00,OVC,FEW,0.00,WeatherDisplay:10.37,2013-02-21 09:02:00,
2013-02-21 03:07:00,27.3,21.0,30.27,East,94,3.5,3.5,77,0.00,OVC,FEW,0.00,WeatherDisplay:10.37,2013-02-21 09:07:00,
2013-02-21 03:12:00,27.3,20.7,30.27,NNE,32,4.6,4.6,76,0.00,OVC,FEW,0.00,WeatherDisplay:10.37,2013-02-21 09:12:00,
2013-02-21 03:17:00,27.3,20.7,30.29,NE,54,5.8,5.8,76,0.00,OVC,FEW,0.00,WeatherDisplay:10.37,2013-02-21 09:17:00,
2013-02-21 03:22:00,27.2,20.6,30.28,East,88,5.8,5.8,76,0.00,BKN,FEW,0.00,WeatherDisplay:10.37,2013-02-21 09:22:00,
2013-02-21 03:27:00,27.2,20.9,30.28,North,10,5.8,5.8,77,0.00,BKN,FEW,0.00,WeatherDisplay:10.37,2013-02-21 09:27:00,
2013-02-21 03:32:00,27.2,20.6,30.28,NNE,17,4.6,4.6,76,0.00,BKN,FEW,0.00,WeatherDisplay:10.37,2013-02-21 09:32:00,
2013-02-21 03:37:00,27.1,20.5,30.28,East,92,5.8,5.8,76,0.00,BKN,FEW,0.00,WeatherDisplay:10.37,2013-02-21 09:37:00,
2013-02-21 03:42:00,27.1,20.5,30.27,ENE,57,3.5,3.5,76,0.00,BKN,FEW,0.00,WeatherDisplay:10.37,2013-02-21 09:42:00,
2013-02-21 03:47:00,27.1,20.5,30.28,ENE,61,3.5,3.5,76,0.00,BKN,FEW,0.00,WeatherDisplay:10.37,2013-02-21 09:47:00,
2013-02-21 03:52:00,27.1,20.2,30.27,ENE,61,8.1,8.1,75,0.00,BKN,FEW,0.00,WeatherDisplay:10.37,2013-02-21 09:52:00,
2013-02-21 03:57:00,27.2,20.6,30.26,NE,52,5.8,5.8,76,0.00,BKN,FEW,0.00,WeatherDisplay:10.37,2013-02-21 09:57:00,
2013-02-21 04:02:00,27.3,20.7,30.26,ENE,59,8.1,8.1,76,0.00,BKN,FEW,0.00,WeatherDisplay:10.37,2013-02-21 10:02:00,
2013-02-21 04:07:00,27.4,21.1,30.26,ENE,74,3.5,3.5,77,0.00,BKN,FEW,0.00,WeatherDisplay:10.37,2013-02-21 10:07:00,
2013-02-21 04:12:00,27.5,20.9,30.27,ENE,60,5.8,5.8,76,0.00,BKN,FEW,0.00,WeatherDisplay:10.37,2013-02-21 10:12:00,
2013-02-21 04:17:00,27.5,20.3,30.27,NE,38,4.6,4.6,74,0.00,BKN,FEW,0.00,WeatherDisplay:10.37,2013-02-21 10:17:00,
2013-02-21 04:22:00,27.5,20.3,30.28,South,171,2.3,2.3,74,0.00,BKN,FEW,0.00,WeatherDisplay:10.37,2013-02-21 10:22:00,
2013-02-21 04:27:00,27.5,20.3,30.29,ENE,74,4.6,4.6,74,0.00,BKN,FEW,0.00,WeatherDisplay:10.37,2013-02-21 10:27:00,
2013-02-21 04:32:00,27.4,20.2,30.28,ENE,60,6.9,6.9,74,0.00,BKN,FEW,0.00,WeatherDisplay:10.37,2013-02-21 10:32:00,
2013-02-21 04:37:00,27.4,20.2,30.28,ENE,69,8.1,8.1,74,0.00,BKN,FEW,0.00,WeatherDisplay:10.37,2013-02-21 10:37:00,
2013-02-21 04:42:00,27.5,20.3,30.28,ENE,67,4.6,4.6,74,0.00,BKN,FEW,0.00,WeatherDisplay:10.37,2013-02-21 10:42:00,
2013-02-21 04:47:00,27.6,20.7,30.28,ESE,119,1.1,1.1,75,0.00,BKN,FEW,0.00,WeatherDisplay:10.37,2013-02-21 10:47:00,
2013-02-21 04:52:00,27.7,20.2,30.28,East,88,6.9,6.9,73,0.00,BKN,FEW,0.00,WeatherDisplay:10.37,2013-02-21 10:52:00,
2013-02-21 04:57:00,27.8,20.6,30.30,ESE,119,3.5,3.5,74,0.00,BKN,FEW,0.00,WeatherDisplay:10.37,2013-02-21 10:57:00,
2013-02-21 05:02:00,27.9,20.4,30.30,ENE,59,4.6,4.6,73,0.00,BKN,FEW,0.00,WeatherDisplay:10.37,2013-02-21 11:02:00,
2013-02-21 05:07:00,27.9,20.4,30.30,ENE,72,3.5,3.5,73,0.00,BKN,FEW,0.00,WeatherDisplay:10.37,2013-02-21 11:07:00,
2013-02-21 05:12:00,27.9,20.4,30.29,ENE,58,6.9,6.9,73,0.00,BKN,FEW,0.00,WeatherDisplay:10.37,2013-02-21 11:12:00,
2013-02-21 05:17:00,28.0,20.8,30.29,ENE,60,5.8,5.8,74,0.00,BKN,FEW,0.00,WeatherDisplay:10.37,2013-02-21 11:17:00,
2013-02-21 05:22:00,28.0,20.5,30.29,ENE,75,8.1,8.1,73,0.00,BKN,FEW,0.00,WeatherDisplay:10.37,2013-02-21 11:22:00,
2013-02-21 05:27:00,28.0,20.5,30.29,ENE,65,5.8,5.8,73,0.00,BKN,FEW,0.00,WeatherDisplay:10.37,2013-02-21 11:27:00,
2013-02-21 05:32:00,28.0,20.5,30.28,ENE,74,5.8,5.8,73,0.00,BKN,FEW,0.00,WeatherDisplay:10.37,2013-02-21 11:32:00,
2013-02-21 05:37:00,28.0,20.8,30.28,NE,49,4.6,4.6,74,0.00,BKN,FEW,0.00,WeatherDisplay:10.37,2013-02-21 11:37:00,
2013-02-21 05:42:00,28.0,20.5,30.28,East,79,3.5,3.5,73,0.00,BKN,FEW,0.00,WeatherDisplay:10.37,2013-02-21 11:42:00,
2013-02-21 05:47:00,28.0,20.1,30.28,ENE,71,8.1,8.1,72,0.00,BKN,FEW,0.00,WeatherDisplay:10.37,2013-02-21 11:47:00,
2013-02-21 05:52:00,28.1,20.6,30.27,ENE,65,2.3,2.3,73,0.00,OVC,FEW,0.00,WeatherDisplay:10.37,2013-02-21 11:52:00,
2013-02-21 05:57:00,28.1,20.2,30.27,ENE,74,8.1,8.1,72,0.00,OVC,FEW,0.00,WeatherDisplay:10.37,2013-02-21 11:57:00,
2013-02-21 06:02:00,28.1,20.2,30.25,ESE,107,9.2,9.2,72,0.00,SCT,FEW,0.00,WeatherDisplay:10.37,2013-02-21 12:02:00,
2013-02-21 06:07:00,28.2,20.7,30.25,ENE,59,3.5,3.5,73,0.00,SCT,FEW,0.00,WeatherDisplay:10.37,2013-02-21 12:07:00,
2013-02-21 06:12:00,28.2,20.3,30.25,ENE,75,6.9,6.9,72,0.00,SCT,FEW,0.00,WeatherDisplay:10.37,2013-02-21 12:12:00,
2013-02-21 06:17:00,28.2,20.3,30.24,East,100,8.1,8.1,72,0.00,SCT,FEW,0.00,WeatherDisplay:10.37,2013-02-21 12:17:00,
2013-02-21 06:22:00,28.2,20.3,30.24,East,84,8.1,8.1,72,0.00,SCT,FEW,0.00,WeatherDisplay:10.37,2013-02-21 12:22:00,
2013-02-21 06:27:00,28.3,20.4,30.25,East,90,6.9,6.9,72,0.00,SCT,FEW,0.00,WeatherDisplay:10.37,2013-02-21 12:27:00,
2013-02-21 06:32:00,28.3,20.4,30.25,ENE,63,5.8,5.8,72,0.00,SCT,FEW,0.00,WeatherDisplay:10.37,2013-02-21 12:32:00,
2013-02-21 06:37:00,28.3,20.4,30.25,ENE,63,6.9,6.9,72,0.00,SCT,FEW,0.00,WeatherDisplay:10.37,2013-02-21 12:37:00,
2013-02-21 06:42:00,28.4,20.2,30.26,NE,45,8.1,8.1,71,0.00,SCT,FEW,0.00,WeatherDisplay:10.37,2013-02-21 12:42:00,
2013-02-21 06:47:00,28.5,20.3,30.26,ENE,78,8.1,8.1,71,0.00,SCT,FEW,0.00,WeatherDisplay:10.37,2013-02-21 12:47:00,
2013-02-21 06:52:00,28.6,20.4,30.25,East,91,3.5,3.5,71,0.00,SCT,FEW,0.00,WeatherDisplay:10.37,2013-02-21 12:52:00,
2013-02-21 06:57:00,28.8,20.9,30.24,ENE,75,5.8,5.8,72,0.00,SCT,FEW,0.00,WeatherDisplay:10.37,2013-02-21 12:57:00,
2013-02-21 07:03:00,28.8,20.2,30.22,NE,49,10.4,10.4,70,0.00,FEW,,0.00,WeatherDisplay:10.37,2013-02-21 13:03:00,
2013-02-21 07:08:00,28.9,20.7,30.21,ENE,67,10.4,10.4,71,0.00,FEW,,0.00,WeatherDisplay:10.37,2013-02-21 13:08:00,
2013-02-21 07:13:00,29.0,20.4,30.23,East,79,6.9,6.9,70,0.00,FEW,,0.00,WeatherDisplay:10.37,2013-02-21 13:13:00,
2013-02-21 07:18:00,29.1,21.8,30.23,East,88,6.9,6.9,74,0.00,FEW,,0.00,WeatherDisplay:10.37,2013-02-21 13:18:00,
2013-02-21 07:23:00,29.1,21.8,30.23,ENE,64,8.1,8.1,74,0.00,FEW,,0.00,WeatherDisplay:10.37,2013-02-21 13:23:00,
2013-02-21 07:28:00,29.0,21.4,30.24,ENE,76,8.1,8.1,73,0.00,FEW,,0.00,WeatherDisplay:10.37,2013-02-21 13:28:00,
2013-02-21 07:33:00,29.0,21.4,30.24,NE,34,4.6,4.6,73,0.00,FEW,,0.00,WeatherDisplay:10.37,2013-02-21 13:33:00,
2013-02-21 07:38:00,29.0,21.7,30.24,ENE,61,6.9,6.9,74,0.00,FEW,,0.00,WeatherDisplay:10.37,2013-02-21 13:38:00,
2013-02-21 07:43:00,29.0,21.4,30.25,East,81,8.1,8.1,73,0.00,FEW,,0.00,WeatherDisplay:10.37,2013-02-21 13:43:00,
2013-02-21 07:48:00,29.1,21.5,30.24,ENE,70,5.8,5.8,73,0.00,FEW,,0.00,WeatherDisplay:10.37,2013-02-21 13:48:00,
2013-02-21 07:53:00,29.4,21.8,30.24,ESE,111,8.1,8.1,73,0.00,FEW,,0.00,WeatherDisplay:10.37,2013-02-21 13:53:00,
2013-02-21 07:58:00,29.9,21.3,30.24,ENE,59,10.4,10.4,70,0.00,FEW,,0.00,WeatherDisplay:10.37,2013-02-21 13:58:00,
2013-02-21 08:03:00,30.3,21.7,30.24,NE,54,8.1,8.1,70,0.00,BKN,FEW,0.00,WeatherDisplay:10.37,2013-02-21 14:03:00,
2013-02-21 08:08:00,30.5,21.2,30.23,ESE,113,8.1,8.1,68,0.00,BKN,FEW,0.00,WeatherDisplay:10.37,2013-02-21 14:08:00,
2013-02-21 08:13:00,30.8,21.1,30.23,ENE,67,11.5,11.5,67,0.00,BKN,FEW,0.00,WeatherDisplay:10.37,2013-02-21 14:13:00,
2013-02-21 08:18:00,31.1,21.4,30.23,East,80,13.8,13.8,67,0.00,BKN,FEW,0.00,WeatherDisplay:10.37,2013-02-21 14:18:00,
2013-02-21 08:23:00,31.4,21.3,30.23,East,90,9.2,9.2,66,0.00,BKN,FEW,0.00,WeatherDisplay:10.37,2013-02-21 14:23:00,
2013-02-21 08:28:00,31.9,22.2,30.24,East,95,5.8,5.8,67,0.00,BKN,FEW,0.00,WeatherDisplay:10.37,2013-02-21 14:28:00,
2013-02-21 08:33:00,32.5,22.0,30.23,ENE,69,5.8,5.8,65,0.00,BKN,FEW,0.00,WeatherDisplay:10.37,2013-02-21 14:33:00,
2013-02-21 08:38:00,33.2,23.1,30.23,ENE,65,5.8,5.8,66,0.00,BKN,FEW,0.00,WeatherDisplay:10.37,2013-02-21 14:38:00,
2013-02-21 08:43:00,33.6,22.7,30.23,ENE,60,8.1,8.1,64,0.00,BKN,FEW,0.00,WeatherDisplay:10.37,2013-02-21 14:43:00,
2013-02-21 08:48:00,33.5,21.5,30.22,ESE,117,5.8,6.5,61,0.00,BKN,FEW,0.00,WeatherDisplay:10.37,2013-02-21 14:48:00,
2013-02-21 08:53:00,33.4,21.8,30.22,SSE,148,8.1,8.1,62,0.00,BKN,FEW,0.00,WeatherDisplay:10.37,2013-02-21 14:53:00,
2013-02-21 08:58:00,33.5,21.5,30.23,ESE,103,3.5,3.5,61,0.00,BKN,FEW,0.00,WeatherDisplay:10.37,2013-02-21 14:58:00,
2013-02-21 09:03:00,33.8,22.1,30.23,SE,144,5.8,5.8,62,0.00,CLR,FEW,0.00,WeatherDisplay:10.37,2013-02-21 15:03:00,
2013-02-21 09:08:00,34.0,21.6,30.22,East,88,9.2,9.2,60,0.00,CLR,FEW,0.00,WeatherDisplay:10.37,2013-02-21 15:08:00,
2013-02-21 09:13:00,34.2,22.1,30.20,NE,36,8.1,8.1,61,0.00,CLR,FEW,0.00,WeatherDisplay:10.37,2013-02-21 15:13:00,
2013-02-21 09:18:00,34.7,22.2,30.20,East,90,8.1,8.1,60,0.00,CLR,FEW,0.00,WeatherDisplay:10.37,2013-02-21 15:18:00,
2013-02-21 09:23:00,35.2,22.3,30.21,SE,134,8.1,8.1,59,0.00,CLR,FEW,0.00,WeatherDisplay:10.37,2013-02-21 15:23:00,
2013-02-21 09:28:00,35.8,22.0,30.21,ENE,78,8.1,8.2,57,0.00,CLR,FEW,0.00,WeatherDisplay:10.37,2013-02-21 15:28:00,
2013-02-21 09:33:00,36.2,22.4,30.21,East,80,8.1,8.1,57,0.00,CLR,FEW,0.00,WeatherDisplay:10.37,2013-02-21 15:33:00,
2013-02-21 09:38:00,36.7,22.5,30.21,East,89,8.1,8.1,56,0.00,CLR,FEW,0.00,WeatherDisplay:10.37,2013-02-21 15:38:00,
2013-02-21 09:43:00,37.1,22.8,30.20,NNE,19,6.9,6.9,56,0.00,CLR,FEW,0.00,WeatherDisplay:10.37,2013-02-21 15:43:00,
2013-02-21 09:48:00,37.1,22.8,30.19,ENE,65,9.2,9.2,56,0.00,CLR,FEW,0.00,WeatherDisplay:10.37,2013-02-21 15:48:00,
2013-02-21 09:53:00,36.9,22.7,30.18,ENE,64,10.4,10.4,56,0.00,CLR,FEW,0.00,WeatherDisplay:10.37,2013-02-21 15:53:00,
2013-02-21 09:59:00,36.9,22.2,30.18,ESE,117,8.1,8.1,55,0.00,CLR,FEW,0.00,WeatherDisplay:10.37,2013-02-21 15:59:00,
2013-02-21 10:04:00,37.0,21.9,30.20,ESE,109,8.1,8.1,54,0.00,SCT,FEW,0.00,WeatherDisplay:10.37,2013-02-21 16:04:00,
2013-02-21 10:09:00,37.2,21.6,30.19,East,89,9.2,9.2,53,0.00,SCT,FEW,0.00,WeatherDisplay:10.37,2013-02-21 16:09:00,
2013-02-21 10:14:00,37.2,22.1,30.19,ENE,69,8.1,8.1,54,0.00,SCT,FEW,0.00,WeatherDisplay:10.37,2013-02-21 16:14:00,
2013-02-21 10:19:00,37.4,22.3,30.19,ENE,78,8.1,8.1,54,0.00,SCT,FEW,0.00,WeatherDisplay:10.37,2013-02-21 16:19:00,
2013-02-21 10:24:00,37.6,22.4,30.19,ESE,103,8.1,8.1,54,0.00,SCT,FEW,0.00,WeatherDisplay:10.37,2013-02-21 16:24:00,
2013-02-21 10:29:00,37.8,22.6,30.20,SSE,158,3.5,3.5,54,0.00,SCT,FEW,0.00,WeatherDisplay:10.37,2013-02-21 16:29:00,
2013-02-21 10:34:00,38.0,22.4,30.19,SE,130,8.1,8.1,53,0.00,SCT,FEW,0.00,WeatherDisplay:10.37,2013-02-21 16:34:00,
2013-02-21 10:39:00,38.3,22.2,30.19,East,84,8.1,8.1,52,0.00,SCT,FEW,0.00,WeatherDisplay:10.37,2013-02-21 16:39:00,
2013-02-21 10:44:00,38.6,22.5,30.18,SSE,165,10.4,10.4,52,0.00,SCT,FEW,0.00,WeatherDisplay:10.37,2013-02-21 16:44:00,
2013-02-21 10:49:00,38.9,23.2,30.17,South,184,3.5,3.5,53,0.00,SCT,FEW,0.00,WeatherDisplay:10.37,2013-02-21 16:49:00,
2013-02-21 10:54:00,39.3,22.7,30.17,East,80,8.1,8.1,51,0.00,SCT,FEW,0.00,WeatherDisplay:10.37,2013-02-21 16:54:00,
2013-02-21 10:59:00,39.4,22.8,30.17,ENE,67,5.8,5.8,51,0.00,SCT,FEW,0.00,WeatherDisplay:10.37,2013-02-21 16:59:00,
2013-02-21 11:04:00,39.3,22.7,30.16,ENE,60,11.5,11.5,51,0.00,BKN,FEW,0.00,WeatherDisplay:10.37,2013-02-21 17:04:00,
2013-02-21 11:09:00,39.3,22.7,30.15,ESE,107,4.6,4.6,51,0.00,BKN,FEW,0.00,WeatherDisplay:10.37,2013-02-21 17:09:00,
2013-02-21 11:14:00,39.6,23.4,30.14,ESE,107,8.1,8.1,52,0.00,BKN,FEW,0.00,WeatherDisplay:10.37,2013-02-21 17:14:00,
2013-02-21 11:19:00,39.7,22.6,30.13,East,92,8.1,8.1,50,0.00,BKN,FEW,0.00,WeatherDisplay:10.37,2013-02-21 17:19:00,
2013-02-21 11:24:00,39.7,23.0,30.13,NNE,25,10.4,10.4,51,0.00,BKN,FEW,0.00,WeatherDisplay:10.37,2013-02-21 17:24:00,
2013-02-21 11:29:00,39.8,22.7,30.12,East,80,6.9,6.9,50,0.00,BKN,FEW,0.00,WeatherDisplay:10.37,2013-02-21 17:29:00,
2013-02-21 11:34:00,40.0,23.8,30.11,NE,49,8.1,8.1,52,0.00,BKN,FEW,0.00,WeatherDisplay:10.37,2013-02-21 17:34:00,
2013-02-21 11:39:00,40.1,23.4,30.10,East,88,8.1,8.1,51,0.00,BKN,FEW,0.00,WeatherDisplay:10.37,2013-02-21 17:39:00,
2013-02-21 11:44:00,40.1,23.9,30.09,ESE,104,6.9,6.9,52,0.00,BKN,FEW,0.00,WeatherDisplay:10.37,2013-02-21 17:44:00,
2013-02-21 11:49:00,40.3,23.6,30.10,East,93,6.9,6.9,51,0.00,BKN,FEW,0.00,WeatherDisplay:10.37,2013-02-21 17:49:00,
2013-02-21 11:54:00,40.4,22.7,30.10,ENE,78,8.1,8.1,49,0.00,BKN,FEW,0.00,WeatherDisplay:10.37,2013-02-21 17:54:00,
2013-02-21 11:59:00,40.5,22.3,30.08,ENE,76,11.5,11.5,48,0.00,BKN,FEW,0.00,WeatherDisplay:10.37,2013-02-21 17:59:00,
2013-02-21 12:04:00,40.6,21.9,30.07,ENE,63,15.0,15.0,47,0.00,BKN,FEW,0.00,WeatherDisplay:10.37,2013-02-21 18:04:00,
2013-02-21 12:09:00,40.7,23.5,30.07,ENE,76,11.5,11.5,50,0.00,BKN,FEW,0.00,WeatherDisplay:10.37,2013-02-21 18:09:00,
2013-02-21 12:14:00,40.6,22.4,30.06,East,92,11.5,11.5,48,0.00,BKN,FEW,0.00,WeatherDisplay:10.37,2013-02-21 18:14:00,
2013-02-21 12:19:00,40.6,22.9,30.07,NE,44,11.5,11.5,49,0.00,BKN,FEW,0.00,WeatherDisplay:10.37,2013-02-21 18:19:00,
2013-02-21 12:24:00,40.6,22.9,30.07,ESE,103,8.1,8.1,49,0.00,BKN,FEW,0.00,WeatherDisplay:10.37,2013-02-21 18:24:00,
2013-02-21 12:29:00,40.6,23.9,30.06,ENE,63,5.8,5.8,51,0.00,BKN,FEW,0.00,WeatherDisplay:10.37,2013-02-21 18:29:00,
2013-02-21 12:34:00,40.6,23.9,30.04,East,89,9.2,9.2,51,0.00,BKN,FEW,0.00,WeatherDisplay:10.37,2013-02-21 18:34:00,
2013-02-21 12:39:00,40.6,24.3,30.02,NE,42,6.9,6.9,52,0.00,BKN,FEW,0.00,WeatherDisplay:10.37,2013-02-21 18:39:00,
2013-02-21 12:44:00,40.5,23.3,30.01,East,82,16.0,16.0,50,0.00,BKN,FEW,0.00,WeatherDisplay:10.37,2013-02-21 18:44:00,
2013-02-21 12:49:00,40.3,23.6,30.00,ENE,69,9.2,9.2,51,0.00,BKN,FEW,0.00,WeatherDisplay:10.37,2013-02-21 18:49:00,
2013-02-21 12:54:00,40.2,23.5,29.99,North,360,13.8,13.8,51,0.00,BKN,FEW,0.00,WeatherDisplay:10.37,2013-02-21 18:54:00,
2013-02-21 12:59:00,40.2,24.0,29.99,ENE,63,9.2,9.2,52,0.00,BKN,FEW,0.00,WeatherDisplay:10.37,2013-02-21 18:59:00,
2013-02-21 13:04:00,40.2,24.0,29.99,East,90,10.4,10.4,52,0.00,BKN,FEW,0.00,WeatherDisplay:10.37,2013-02-21 19:04:00,
2013-02-21 13:09:00,40.2,24.0,30.00,ENE,71,4.6,4.6,52,0.00,BKN,FEW,0.00,WeatherDisplay:10.37,2013-02-21 19:09:00,
2013-02-21 13:14:00,40.2,24.0,30.01,East,88,13.8,13.8,52,0.00,BKN,FEW,0.00,WeatherDisplay:10.37,2013-02-21 19:14:00,
2013-02-21 13:19:00,40.3,25.0,30.01,East,83,3.5,5.1,54,0.00,BKN,FEW,0.00,WeatherDisplay:10.37,2013-02-21 19:19:00,
2013-02-21 13:24:00,40.4,25.1,30.02,NE,34,6.9,6.9,54,0.00,BKN,FEW,0.00,WeatherDisplay:10.37,2013-02-21 19:24:00,
2013-02-21 13:29:00,40.4,25.1,30.01,ENE,66,8.1,8.1,54,0.00,BKN,FEW,0.00,WeatherDisplay:10.37,2013-02-21 19:29:00,
2013-02-21 13:34:00,40.4,24.6,30.01,ENE,61,12.7,12.7,53,0.00,BKN,FEW,0.00,WeatherDisplay:10.37,2013-02-21 19:34:00,
2013-02-21 13:39:00,40.4,25.5,30.01,ENE,68,5.8,5.8,55,0.00,BKN,FEW,0.00,WeatherDisplay:10.37,2013-02-21 19:39:00,
2013-02-21 13:44:00,40.3,25.8,30.00,East,80,9.2,9.2,56,0.00,BKN,FEW,0.00,WeatherDisplay:10.37,2013-02-21 19:44:00,
2013-02-21 13:49:00,40.2,25.7,29.99,East,90,8.1,8.1,56,0.00,BKN,FEW,0.00,WeatherDisplay:10.37,2013-02-21 19:49:00,
2013-02-21 13:54:00,40.2,27.4,29.99,ENE,65,4.3,4.3,60,0.00,BKN,FEW,0.00,WeatherDisplay:10.37,2013-02-21 19:54:00,
2013-02-21 13:59:00,40.1,26.9,29.99,East,94,5.8,5.8,59,0.00,BKN,FEW,0.00,WeatherDisplay:10.37,2013-02-21 19:59:00,
2013-02-21 14:05:00,40.2,27.0,30.00,ESE,107,8.1,8.1,59,0.00,CLR,FEW,0.00,WeatherDisplay:10.37,2013-02-21 20:05:00,
2013-02-21 14:10:00,40.2,26.6,30.01,ENE,71,5.8,5.8,58,0.00,CLR,FEW,0.00,WeatherDisplay:10.37,2013-02-21 20:10:00,
2013-02-21 14:15:00,40.2,27.8,30.01,ENE,77,2.3,2.3,61,0.00,CLR,FEW,0.00,WeatherDisplay:10.37,2013-02-21 20:15:00,
2013-02-21 14:20:00,40.2,27.8,30.01,ENE,78,1.1,1.1,61,0.00,CLR,FEW,0.00,WeatherDisplay:10.37,2013-02-21 20:20:00,
2013-02-21 14:25:00,40.1,27.7,30.01,NE,54,4.6,4.6,61,0.00,CLR,FEW,0.00,WeatherDisplay:10.37,2013-02-21 20:25:00,
2013-02-21 14:30:00,40.0,30.3,30.01,NE,54,0.0,0.0,68,0.01,RA,FEW,0.01,WeatherDisplay:10.37,2013-02-21 20:30:00,
2013-02-21 14:35:00,39.9,30.9,30.02,NE,54,0.0,0.0,70,0.01,RA,FEW,0.01,WeatherDisplay:10.37,2013-02-21 20:35:00,
2013-02-21 14:40:00,39.5,33.2,30.02,NE,54,0.0,0.0,78,0.01,FEW,,0.01,WeatherDisplay:10.37,2013-02-21 20:40:00,
2013-02-21 14:45:00,39.2,32.6,30.01,NE,54,0.0,0.0,77,0.02,RA,FEW,0.02,WeatherDisplay:10.37,2013-02-21 20:45:00,
2013-02-21 14:50:00,38.7,33.4,30.02,NE,54,0.0,0.0,81,0.03,RA,FEW,0.03,WeatherDisplay:10.37,2013-02-21 20:50:00,
2013-02-21 14:55:00,38.1,33.4,30.02,NE,54,1.1,0.0,83,0.03,RA,FEW,0.03,WeatherDisplay:10.37,2013-02-21 20:55:00,
2013-02-21 15:00:00,37.7,33.6,30.03,NE,54,0.0,0.0,85,0.05,RA,FEW,0.05,WeatherDisplay:10.37,2013-02-21 21:00:00,
2013-02-21 15:05:00,37.4,33.9,30.04,NE,54,1.1,1.1,87,0.06,-DZ,FEW,0.06,WeatherDisplay:10.37,2013-02-21 21:05:00,
2013-02-21 15:10:00,37.1,33.9,30.05,NE,54,1.1,0.0,88,0.07,-DZ,FEW,0.07,WeatherDisplay:10.37,2013-02-21 21:10:00,
2013-02-21 15:15:00,36.9,34.0,30.05,NE,54,0.0,0.0,89,0.09,-DZ,FEW,0.09,WeatherDisplay:10.37,2013-02-21 21:15:00,
2013-02-21 15:20:00,36.9,34.2,30.04,NE,54,1.1,0.0,90,0.11,-DZ,FEW,0.11,WeatherDisplay:10.37,2013-02-21 21:20:00,
2013-02-21 15:25:00,36.9,34.5,30.03,NE,54,2.3,2.3,91,0.12,-DZ,FEW,0.12,WeatherDisplay:10.37,2013-02-21 21:25:00,
2013-02-21 15:30:00,36.9,34.8,30.03,NE,54,2.3,2.3,92,0.12,-DZ,FEW,0.13,WeatherDisplay:10.37,2013-02-21 21:30:00,
2013-02-21 15:35:00,36.9,34.5,30.03,NE,54,1.1,1.1,91,0.13,-DZ,FEW,0.14,WeatherDisplay:10.37,2013-02-21 21:35:00,
2013-02-21 15:40:00,36.7,34.3,30.03,ENE,76,5.8,5.8,91,0.14,-DZ,FEW,0.15,WeatherDisplay:10.37,2013-02-21 21:40:00,
2013-02-21 15:45:00,36.6,33.9,30.01,ENE,74,5.8,5.8,90,0.15,-DZ,FEW,0.17,WeatherDisplay:10.37,2013-02-21 21:45:00,
2013-02-21 15:50:00,36.5,34.1,30.01,ENE,71,2.3,2.3,91,0.15,-DZ,FEW,0.18,WeatherDisplay:10.37,2013-02-21 21:50:00,
2013-02-21 15:55:00,36.4,33.7,30.00,NE,47,5.8,5.8,90,0.16,-DZ,FEW,0.19,WeatherDisplay:10.37,2013-02-21 21:55:00,
2013-02-21 16:00:00,36.3,33.6,30.00,ENE,68,8.1,8.1,90,0.16,-DZ,FEW,0.21,WeatherDisplay:10.37,2013-02-21 22:00:00,
2013-02-21 16:05:00,36.2,33.5,30.00,NE,55,8.1,8.1,90,0.16,RA,FEW,0.23,WeatherDisplay:10.37,2013-02-21 22:05:00,
2013-02-21 16:10:00,36.2,33.5,30.00,ENE,64,5.4,5.4,90,0.17,RA,FEW,0.24,WeatherDisplay:10.37,2013-02-21 22:10:00,
2013-02-21 16:15:00,36.2,33.8,30.00,ENE,59,5.8,5.8,91,0.18,RA,FEW,0.27,WeatherDisplay:10.37,2013-02-21 22:15:00,
2013-02-21 16:20:00,36.1,33.7,29.99,NE,51,6.9,8.2,91,0.17,RA,FEW,0.28,WeatherDisplay:10.37,2013-02-21 22:20:00,
2013-02-21 16:25:00,36.1,33.7,29.99,ESE,108,5.8,5.8,91,0.18,RA,FEW,0.30,WeatherDisplay:10.37,2013-02-21 22:25:00,
2013-02-21 16:31:00,36.1,33.7,30.00,ENE,74,8.1,8.1,91,0.19,RA,FEW,0.32,WeatherDisplay:10.37,2013-02-21 22:31:00,
2013-02-21 16:36:00,36.1,33.7,29.99,ENE,76,5.8,5.8,91,0.19,RA,FEW,0.33,WeatherDisplay:10.37,2013-02-21 22:36:00,
2013-02-21 16:41:00,36.1,33.7,29.97,ENE,69,8.1,8.1,91,0.20,RA,FEW,0.35,WeatherDisplay:10.37,2013-02-21 22:41:00,
2013-02-21 16:46:00,36.0,33.6,29.95,ENE,63,11.5,11.5,91,0.20,RA,FEW,0.37,WeatherDisplay:10.37,2013-02-21 22:46:00,
2013-02-21 16:51:00,35.9,33.5,29.93,NE,51,15.0,15.0,91,0.20,RA,FEW,0.38,WeatherDisplay:10.37,2013-02-21 22:51:00,
2013-02-21 16:56:00,36.0,33.9,29.96,ENE,74,8.1,8.1,92,0.20,RA,FEW,0.39,WeatherDisplay:10.37,2013-02-21 22:56:00,
2013-02-21 17:01:00,36.1,33.7,29.97,NNE,23,10.4,10.4,91,0.18,RA,FEW,0.39,WeatherDisplay:10.37,2013-02-21 23:01:00,
2013-02-21 17:06:00,36.3,33.9,29.97,NE,40,2.3,2.3,91,0.17,RA,FEW,0.40,WeatherDisplay:10.37,2013-02-21 23:06:00,
2013-02-21 17:11:00,36.3,33.9,29.96,East,89,8.1,8.1,91,0.17,RA,FEW,0.41,WeatherDisplay:10.37,2013-02-21 23:11:00,
2013-02-21 17:16:00,36.2,33.8,29.95,ENE,67,10.4,10.4,91,0.16, +RA,FEW,0.43,WeatherDisplay:10.37,2013-02-21 23:16:00,
2013-02-21 17:21:00,36.1,33.7,29.94,ENE,77,17.3,17.3,91,0.19, +RA,FEW,0.47,WeatherDisplay:10.37,2013-02-21 23:21:00,
2013-02-21 17:26:00,35.9,33.8,29.91,North,9,10.4,10.4,92,0.22, +RA,FEW,0.52,WeatherDisplay:10.37,2013-02-21 23:26:00,
2013-02-21 17:31:00,35.8,33.7,29.94,NE,44,11.5,11.5,92,0.21, +RA,FEW,0.53,WeatherDisplay:10.37,2013-02-21 23:31:00,
2013-02-21 17:36:00,35.9,33.8,29.93,NE,53,13.8,13.8,92,0.22, +RA,FEW,0.55,WeatherDisplay:10.37,2013-02-21 23:36:00,
2013-02-21 17:41:00,35.8,33.7,29.93,ENE,77,8.1,8.1,92,0.24, +RA,FEW,0.59,WeatherDisplay:10.37,2013-02-21 23:41:00,
2013-02-21 17:46:00,35.8,33.7,29.93,ESE,117,6.9,6.9,92,0.24, +RA,FEW,0.61,WeatherDisplay:10.37,2013-02-21 23:46:00,
2013-02-21 17:51:00,35.9,34.1,29.94,ENE,65,10.4,10.4,93,0.25, +RA,FEW,0.63,WeatherDisplay:10.37,2013-02-21 23:51:00,
2013-02-21 17:56:00,36.0,34.2,29.92,SE,132,9.2,9.2,93,0.26, +RA,FEW,0.65,WeatherDisplay:10.37,2013-02-21 23:56:00,
2013-02-21 18:01:00,36.1,34.3,29.91,ENE,73,23.0,23.0,93,0.28,RA,FEW,0.67,WeatherDisplay:10.37,2013-02-22 00:01:00,
2013-02-21 18:06:00,36.2,34.4,29.94,ENE,58,15.0,15.0,93,0.29,RA,FEW,0.69,WeatherDisplay:10.37,2013-02-22 00:06:00,
2013-02-21 18:11:00,36.2,34.1,29.94,East,98,9.2,9.2,92,0.28,RA,FEW,0.69,WeatherDisplay:10.37,2013-02-22 00:11:00,
2013-02-21 18:16:00,36.2,34.4,29.94,ESE,105,6.9,6.9,93,0.27,OVC,FEW,0.69,WeatherDisplay:10.37,2013-02-22 00:16:00,
2013-02-21 18:21:00,36.1,34.3,29.94,East,86,8.1,8.1,93,0.23,RA,FEW,0.70,WeatherDisplay:10.37,2013-02-22 00:21:00,
2013-02-21 18:26:00,36.2,34.4,29.96,ENE,72,3.5,3.5,93,0.18,RA,FEW,0.70,WeatherDisplay:10.37,2013-02-22 00:26:00,
2013-02-21 18:31:00,36.3,34.5,29.97,East,101,0.0,0.0,93,0.17,OVC,FEW,0.70,WeatherDisplay:10.37,2013-02-22 00:31:00,
2013-02-21 18:36:00,36.4,34.6,29.97,SE,130,2.3,2.3,93,0.16,-RA,FEW,0.70,WeatherDisplay:10.37,2013-02-22 00:36:00,
2013-02-21 18:41:00,36.4,34.8,29.97,East,82,5.8,5.8,94,0.15,-RA,FEW,0.73,WeatherDisplay:10.37,2013-02-22 00:41:00,
2013-02-21 18:46:00,36.5,34.9,29.97,East,88,5.8,5.8,94,0.13,-RA,FEW,0.73,WeatherDisplay:10.37,2013-02-22 00:46:00,
2013-02-21 18:51:00,36.5,34.9,29.97,East,83,9.2,9.2,94,0.12,-RA,FEW,0.74,WeatherDisplay:10.37,2013-02-22 00:51:00,
2013-02-21 18:56:00,36.5,34.9,29.96,East,96,5.8,5.8,94,0.09,-RA,FEW,0.74,WeatherDisplay:10.37,2013-02-22 00:56:00,
2013-02-21 19:01:00,36.5,34.9,29.96,ESE,116,3.5,3.5,94,0.08,-DZ,FEW,0.75,WeatherDisplay:10.37,2013-02-22 01:01:00,
2013-02-21 19:06:00,36.5,34.9,29.95,ENE,60,3.5,3.5,94,0.06,-DZ,FEW,0.75,WeatherDisplay:10.37,2013-02-22 01:06:00,
2013-02-21 19:11:00,36.5,34.9,29.96,ENE,76,3.5,3.5,94,0.06,-DZ,FEW,0.75,WeatherDisplay:10.37,2013-02-22 01:11:00,
2013-02-21 19:16:00,36.6,35.0,29.96,ENE,78,8.6,8.6,94,0.06,-DZ,FEW,0.75,WeatherDisplay:10.37,2013-02-22 01:16:00,
2013-02-21 19:21:00,36.6,35.0,29.96,East,89,3.5,3.5,94,0.05,SCT,FEW,0.75,WeatherDisplay:10.37,2013-02-22 01:21:00,
2013-02-21 19:26:00,36.7,35.1,29.95,ENE,58,10.4,10.4,94,0.05,SCT,FEW,0.75,WeatherDisplay:10.37,2013-02-22 01:26:00,
2013-02-21 19:31:00,36.8,35.2,29.96,East,85,9.2,9.2,94,0.05,SCT,FEW,0.75,WeatherDisplay:10.37,2013-02-22 01:31:00,
2013-02-21 19:36:00,36.8,35.2,29.95,ENE,78,8.1,8.1,94,0.07,RA,FEW,0.77,WeatherDisplay:10.37,2013-02-22 01:36:00,
2013-02-21 19:41:00,36.8,35.2,29.94,ENE,69,2.3,2.4,94,0.04,RA,FEW,0.78,WeatherDisplay:10.37,2013-02-22 01:41:00,
2013-02-21 19:46:00,36.8,35.2,29.93,East,90,8.1,8.1,94,0.06,RA,FEW,0.79,WeatherDisplay:10.37,2013-02-22 01:46:00,
2013-02-21 19:51:00,36.8,35.2,29.93,East,82,5.8,5.8,94,0.05,RA,FEW,0.80,WeatherDisplay:10.37,2013-02-22 01:51:00,
2013-02-21 19:56:00,36.7,35.1,29.92,ENE,67,6.9,6.9,94,0.06,RA,FEW,0.80,WeatherDisplay:10.37,2013-02-22 01:56:00,
2013-02-21 20:01:00,36.8,35.2,29.92,ENE,72,5.8,5.8,94,0.05,-RA,FEW,0.81,WeatherDisplay:10.37,2013-02-22 02:01:00,
2013-02-21 20:06:00,36.8,35.2,29.92,NE,48,8.1,8.1,94,0.06,-RA,FEW,0.81,WeatherDisplay:10.37,2013-02-22 02:06:00,
2013-02-21 20:11:00,36.8,35.2,29.91,SE,141,5.8,5.8,94,0.06,-RA,FEW,0.81,WeatherDisplay:10.37,2013-02-22 02:11:00,
2013-02-21 20:16:00,36.9,35.3,29.90,East,85,9.2,9.2,94,0.06,-RA,FEW,0.81,WeatherDisplay:10.37,2013-02-22 02:16:00,
2013-02-21 20:21:00,37.0,35.4,29.90,East,83,8.1,8.1,94,0.07,-RA,FEW,0.82,WeatherDisplay:10.37,2013-02-22 02:21:00,
2013-02-21 20:26:00,37.0,35.4,29.90,ESE,112,10.4,10.4,94,0.07,-RA,FEW,0.82,WeatherDisplay:10.37,2013-02-22 02:26:00,
2013-02-21 20:31:00,37.2,35.6,29.90,ENE,57,6.9,6.9,94,0.07,-RA,FEW,0.82,WeatherDisplay:10.37,2013-02-22 02:31:00,
2013-02-21 20:36:00,37.2,35.6,29.91,ENE,57,4.6,4.6,94,0.05,-DZ,FEW,0.82,WeatherDisplay:10.37,2013-02-22 02:36:00,
2013-02-21 20:41:00,37.3,35.7,29.90,East,84,8.1,8.1,94,0.05,-DZ,FEW,0.82,WeatherDisplay:10.37,2013-02-22 02:41:00,
2013-02-21 20:46:00,37.4,35.8,29.90,SE,126,6.9,6.9,94,0.03,-DZ,FEW,0.82,WeatherDisplay:10.37,2013-02-22 02:46:00,
2013-02-21 20:51:00,37.5,35.9,29.90,ESE,111,8.1,8.1,94,0.03,-DZ,FEW,0.82,WeatherDisplay:10.37,2013-02-22 02:51:00,
2013-02-21 20:56:00,37.7,36.1,29.89,East,85,8.1,8.1,94,0.02,-DZ,FEW,0.82,WeatherDisplay:10.37,2013-02-22 02:56:00,
2013-02-21 21:01:00,37.8,36.5,29.89,ESE,123,9.2,9.2,95,0.02,-DZ,FEW,0.82,WeatherDisplay:10.37,2013-02-22 03:01:00,
2013-02-21 21:06:00,37.9,36.6,29.89,ESE,107,8.1,8.1,95,0.01,-DZ,FEW,0.82,WeatherDisplay:10.37,2013-02-22 03:06:00,
2013-02-21 21:11:00,38.0,36.4,29.89,East,101,5.8,5.8,94,0.01,-DZ,FEW,0.82,WeatherDisplay:10.37,2013-02-22 03:11:00,
2013-02-21 21:16:00,38.2,36.9,29.89,SE,126,6.9,6.9,95,0.01,-DZ,FEW,0.82,WeatherDisplay:10.37,2013-02-22 03:16:00,
2013-02-21 21:21:00,38.3,37.0,29.89,East,80,5.8,5.8,95,0.00,-DZ,FEW,0.82,WeatherDisplay:10.37,2013-02-22 03:21:00,
2013-02-21 21:26:00,38.5,37.2,29.88,ESE,105,8.1,8.1,95,0.00,-DZ,FEW,0.82,WeatherDisplay:10.37,2013-02-22 03:26:00,
2013-02-21 21:31:00,38.6,37.3,29.87,ENE,72,8.1,8.1,95,0.00,-DZ,FEW,0.82,WeatherDisplay:10.37,2013-02-22 03:31:00,
2013-02-21 21:36:00,38.7,37.4,29.87,East,101,8.1,8.1,95,0.00,OVC,FEW,0.82,WeatherDisplay:10.37,2013-02-22 03:36:00,
2013-02-21 21:41:00,38.9,37.6,29.87,East,95,8.1,8.1,95,0.00,OVC,FEW,0.82,WeatherDisplay:10.37,2013-02-22 03:41:00,
2013-02-21 21:46:00,39.1,37.8,29.87,ENE,65,8.6,8.6,95,0.00,OVC,FEW,0.82,WeatherDisplay:10.37,2013-02-22 03:46:00,
2013-02-21 21:51:00,39.2,37.9,29.87,NE,53,4.6,4.6,95,0.00,OVC,FEW,0.82,WeatherDisplay:10.37,2013-02-22 03:51:00,
2013-02-21 21:56:00,39.3,38.0,29.86,ENE,78,8.1,8.1,95,0.00,OVC,FEW,0.82,WeatherDisplay:10.37,2013-02-22 03:56:00,
2013-02-21 22:02:00,39.4,38.1,29.88,WNW,287,4.6,4.6,95,0.00,OVC,FEW,0.82,WeatherDisplay:10.37,2013-02-22 04:02:00,
2013-02-21 22:07:00,39.6,38.3,29.88,SW,216,3.5,3.5,95,0.00,OVC,FEW,0.82,WeatherDisplay:10.37,2013-02-22 04:07:00,
2013-02-21 22:12:00,39.6,38.3,29.88,ENE,76,4.6,4.6,95,0.00,OVC,FEW,0.82,WeatherDisplay:10.37,2013-02-22 04:12:00,
2013-02-21 22:17:00,39.8,38.5,29.88,ESE,121,3.5,3.5,95,0.00,OVC,FEW,0.82,WeatherDisplay:10.37,2013-02-22 04:17:00,
2013-02-21 22:22:00,39.8,38.5,29.88,ENE,78,3.2,3.2,95,0.00,OVC,FEW,0.82,WeatherDisplay:10.37,2013-02-22 04:22:00,
2013-02-21 22:27:00,39.9,38.6,29.88,East,101,2.3,0.0,95,0.00,OVC,FEW,0.82,WeatherDisplay:10.37,2013-02-22 04:27:00,
2013-02-21 22:32:00,40.0,38.7,29.88,ESE,118,1.1,0.0,95,0.00,OVC,FEW,0.82,WeatherDisplay:10.37,2013-02-22 04:32:00,
2013-02-21 22:37:00,40.1,38.8,29.89,NNE,21,2.3,2.3,95,0.00,OVC,FEW,0.82,WeatherDisplay:10.37,2013-02-22 04:37:00,
2013-02-21 22:42:00,40.1,38.8,29.88,NNE,21,2.3,2.3,95,0.01,RA,FEW,0.83,WeatherDisplay:10.37,2013-02-22 04:42:00,
2013-02-21 22:47:00,40.1,38.8,29.88,NNE,21,0.0,0.0,95,0.01,RA,FEW,0.83,WeatherDisplay:10.37,2013-02-22 04:47:00,
2013-02-21 22:52:00,40.1,38.8,29.88,NNE,21,1.1,1.1,95,0.01,OVC,FEW,0.83,WeatherDisplay:10.37,2013-02-22 04:52:00,
2013-02-21 22:57:00,40.1,38.8,29.88,NNE,21,2.3,2.3,95,0.01,OVC,FEW,0.83,WeatherDisplay:10.37,2013-02-22 04:57:00,
2013-02-21 23:00:00,40.2,38.9,29.88,NNE,21,1.1,1.1,95,0.01,OVC,FEW,0.83,WeatherDisplay:10.37,2013-02-22 05:00:00,
2013-02-21 23:05:00,40.2,38.9,29.88,NNE,21,0.0,0.0,95,0.01,-DZ,FEW,0.83,WeatherDisplay:10.37,2013-02-22 05:05:00,
2013-02-21 23:10:00,40.2,38.9,29.88,NNE,21,0.0,0.0,95,0.01,-DZ,FEW,0.83,WeatherDisplay:10.37,2013-02-22 05:10:00,
2013-02-21 23:15:00,40.2,39.2,29.88,NNE,21,0.0,0.0,96,0.01,-DZ,FEW,0.83,WeatherDisplay:10.37,2013-02-22 05:15:00,
2013-02-21 23:20:00,40.2,39.2,29.88,NNE,21,0.0,0.0,96,0.01,-DZ,FEW,0.83,WeatherDisplay:10.37,2013-02-22 05:20:00,
2013-02-21 23:25:00,40.3,39.3,29.88,NNE,21,0.0,0.0,96,0.01,-DZ,FEW,0.83,WeatherDisplay:10.37,2013-02-22 05:25:00,
2013-02-21 23:30:00,40.3,39.3,29.88,NNE,21,0.0,0.0,96,0.01,-DZ,FEW,0.83,WeatherDisplay:10.37,2013-02-22 05:30:00,
2013-02-21 23:35:00,40.3,39.3,29.88,NNE,21,0.0,0.0,96,0.01,-DZ,FEW,0.83,WeatherDisplay:10.37,2013-02-22 05:35:00,
2013-02-21 23:40:00,40.3,39.3,29.88,NNE,21,0.0,0.0,96,0.01,-DZ,FEW,0.83,WeatherDisplay:10.37,2013-02-22 05:40:00,
2013-02-21 23:45:00,40.3,39.3,29.87,NNE,21,0.0,0.0,96,0.00,-DZ,FEW,0.83,WeatherDisplay:10.37,2013-02-22 05:45:00,
2013-02-21 23:50:00,40.4,39.4,29.87,NNE,21,0.0,0.0,96,0.01,RA,FEW,0.84,WeatherDisplay:10.37,2013-02-22 05:50:00,
2013-02-21 23:55:00,40.5,39.4,29.87,NNE,21,1.1,0.0,96,0.01,RA,FEW,0.84,WeatherDisplay:10.37,2013-02-22 05:55:00,